Impacts TAF Board
For situational awareness. Not to be used for flight planning purposes.
IDs:

KORD - Chicago/O'Hare Intl, IL, US

Issued at 0536 UTC 22 Oct 2021
Updated at 0725 UTC 22 Oct 2021
Potential Impact None Slight Moderate High
Time0651Z 22/08Z 22/09Z 22/10Z 22/11Z 22/12Z 22/13Z 22/14Z 22/15Z 22/16Z 22/17Z 22/18Z 22/19Z 22/20Z>>
Type OBS PRVL PRVL PRVL PRVL PRVL PRVL PRVL PRVL
  [TEMP]  
PRVL
  [TEMP]  
PRVL
  [TEMP]  
PRVL PRVL PRVL
VIS 10 >6 >6 >6 >6 >6 >6 >6 >6 >6 >6 >6 >6 >6
CIG 250 35 -- -- -- -- -- 100 100
  [20]  
100
  [20]  
100
  [20]  
100 100 100
Cover BKN BKN SCT SCT SCT SCT SCT BKN BKN
  [BKN]  
BKN
  [BKN]  
BKN
  [BKN]  
BKN BKN BKN
FltCat VFR VFR VFR VFR VFR VFR VFR VFR VFR
  [MVFR]  
VFR
  [MVFR]  
VFR
  [MVFR]  
VFR VFR VFR
WX -- -- -- -- -- -- -- -- --
  [--]  
--
  [--]  
--
  [--]  
-- -- --
WDir 310 340 320 320 320 320 320 320 320
[320]
320
[320]
320
[320]
320 320 320
WSpd 5 7 9 9 9 9 9 9 9
  [9]  
9
  [9]  
9
  [9]  
9 9 9
WGst -- -- -- -- -- -- -- -- --
  [--]  
--
  [--]  
--
  [--]  
-- -- --
Raw TAF
KORD 220536Z 2206/2312 34007KT P6SM FEW025 BKN035
  FM220900 32009KT P6SM FEW025 SCT250
  FM221400 32009KT P6SM SCT030 BKN100
  TEMPO 2215/2218 BKN020
  FM222300 34004KT P6SM SCT200


Raw METAR
KORD 220651Z 31005KT 10SM FEW060 BKN250 07/03 A3004 RMK AO2 SLP174 T00720033
KORD 220551Z 34004KT 10SM BKN060 BKN250 07/03 A3005 RMK AO2 SLP177 60000 T00670033 10111 20067 401830067 58002
KORD 220451Z 35007KT 10SM FEW020 FEW033 BKN250 08/04 A3006 RMK AO2 SLP181 T00780039

METAR Board
Radar Display
Forecast Discussion
For situational awareness. Not to be used for flight planning purposes.